Time;durP1;ratioP1;P1;durP2;ratioP2;P2;SDS_P1;SDS_P2;PMS_P1;PMS_P2;Temp;Humidity;BMP_temperature;BMP_pressure;BME280_temperature;BME280_humidity;BME280_pressure;Samples;Min_cycle;Max_cycle;Signal;HPM_P1;HPM_P2
2020/12/22 00:02:14;;;;;;;6.72;5.15;;;7.40;99.90;;;;;;8297254;28;20022;-71
2020/12/22 00:06:22;;;;;;;7.03;3.70;;;7.50;99.90;;;;;;8299141;28;20033;-71
2020/12/22 00:10:23;;;;;;;7.85;6.15;;;7.50;99.90;;;;;;8297513;28;20114;-71
2020/12/22 00:14:23;;;;;;;9.50;7.20;;;7.50;99.90;;;;;;8298923;28;20369;-71
2020/12/22 00:18:24;;;;;;;8.10;5.47;;;7.60;99.90;;;;;;8298362;28;20066;-71
2020/12/22 00:22:24;;;;;;;8.75;6.05;;;7.60;99.90;;;;;;8313599;28;20026;-71
2020/12/22 00:26:25;;;;;;;9.73;6.75;;;7.60;99.90;;;;;;8298428;28;20683;-71
2020/12/22 00:30:26;;;;;;;7.95;5.57;;;7.70;99.90;;;;;;8298277;28;20502;-71
2020/12/22 00:34:30;;;;;;;9.23;6.22;;;7.70;99.90;;;;;;8298423;28;20068;-71
2020/12/22 00:38:31;;;;;;;10.38;5.88;;;7.70;99.90;;;;;;8297937;28;20399;-71
2020/12/22 00:42:32;;;;;;;8.32;6.13;;;7.80;99.90;;;;;;8297895;28;20032;-71
2020/12/22 00:46:33;;;;;;;8.48;6.25;;;7.80;99.90;;;;;;8296505;28;20388;-71
2020/12/22 00:50:33;;;;;;;6.63;5.15;;;7.80;99.90;;;;;;8297642;28;20032;-71
2020/12/22 00:54:34;;;;;;;10.27;7.05;;;7.90;99.90;;;;;;8296627;28;20022;-71
2020/12/22 00:58:34;;;;;;;8.90;5.03;;;7.80;99.90;;;;;;8295927;28;20484;-71
2020/12/22 01:02:35;;;;;;;7.10;5.22;;;7.90;99.90;;;;;;8312237;28;20116;-71
2020/12/22 01:06:37;;;;;;;7.10;4.72;;;7.90;99.90;;;;;;8297305;28;20026;-71
2020/12/22 01:10:37;;;;;;;6.25;4.00;;;7.90;99.90;;;;;;8311422;28;20032;-71
2020/12/22 01:14:38;;;;;;;7.53;4.68;;;7.90;99.90;;;;;;8296664;28;20021;-71
2020/12/22 01:18:38;;;;;;;7.60;5.60;;;8.00;99.90;;;;;;8296481;28;20034;-71
2020/12/22 01:22:39;;;;;;;9.95;6.50;;;8.00;99.90;;;;;;8311916;28;20022;-71
2020/12/22 01:26:39;;;;;;;9.52;7.15;;;8.00;99.90;;;;;;8296618;28;20531;-71
2020/12/22 01:30:40;;;;;;;8.38;6.35;;;8.00;99.90;;;;;;8311459;28;20037;-71
2020/12/22 01:34:41;;;;;;;8.43;6.40;;;8.00;99.90;;;;;;8296299;28;20400;-71
2020/12/22 01:38:42;;;;;;;7.13;5.22;;;8.10;99.90;;;;;;8295553;28;20117;-71
2020/12/22 01:42:43;;;;;;;8.88;6.80;;;8.10;99.90;;;;;;8296081;28;20480;-71
2020/12/22 01:46:49;;;;;;;9.02;6.30;;;8.10;99.90;;;;;;8295847;28;20028;-70
2020/12/22 01:50:49;;;;;;;8.18;5.40;;;8.20;99.90;;;;;;8311105;28;20399;-71
2020/12/22 01:54:50;;;;;;;9.98;7.03;;;8.30;99.90;;;;;;8294612;28;20117;-71
2020/12/22 01:58:50;;;;;;;5.53;3.60;;;8.20;99.90;;;;;;8310567;28;20553;-71
2020/12/22 02:02:52;;;;;;;7.07;5.63;;;8.30;99.90;;;;;;8295361;28;20080;-71
2020/12/22 02:06:52;;;;;;;8.60;7.03;;;8.30;99.90;;;;;;8295047;28;20025;-71
2020/12/22 02:10:53;;;;;;;8.02;6.05;;;8.40;99.90;;;;;;8295062;28;20112;-71
2020/12/22 02:14:53;;;;;;;7.80;5.28;;;8.40;99.90;;;;;;8294830;28;20088;-71
2020/12/22 02:18:55;;;;;;;9.00;5.93;;;8.40;99.90;;;;;;8294737;28;20041;-71
2020/12/22 02:22:55;;;;;;;9.25;6.90;;;8.40;99.90;;;;;;8295070;28;20030;-71
2020/12/22 02:26:56;;;;;;;8.52;6.55;;;8.50;99.90;;;;;;8309938;28;20136;-71
2020/12/22 02:30:56;;;;;;;7.45;5.97;;;8.50;99.90;;;;;;8294557;28;20033;-71
2020/12/22 02:34:57;;;;;;;8.52;5.95;;;8.60;99.90;;;;;;8295315;28;20037;-71
2020/12/22 02:38:57;;;;;;;7.28;4.20;;;8.70;99.90;;;;;;8294041;28;20065;-71
2020/12/22 02:43:10;;;;;;;7.55;5.28;;;8.70;99.90;;;;;;8294559;28;20061;-71
2020/12/22 02:47:13;;;;;;;6.15;4.75;;;8.60;99.90;;;;;;8293626;28;20030;-71
2020/12/22 02:51:14;;;;;;;4.38;3.38;;;8.60;99.90;;;;;;8292661;28;20018;-71
2020/12/22 02:55:14;;;;;;;5.78;4.43;;;8.80;99.90;;;;;;8294182;28;20057;-71
2020/12/22 02:59:15;;;;;;;7.32;5.45;;;8.80;99.90;;;;;;8293920;28;20025;-71
2020/12/22 03:03:15;;;;;;;3.03;1.95;;;8.70;99.90;;;;;;8292311;28;20044;-71
2020/12/22 03:07:16;;;;;;;6.50;4.90;;;8.80;99.90;;;;;;8294005;28;20060;-71
2020/12/22 03:11:16;;;;;;;6.57;5.30;;;8.70;99.90;;;;;;8293819;28;20041;-71
2020/12/22 03:15:17;;;;;;;6.65;5.47;;;8.70;99.90;;;;;;8293807;28;20026;-71
2020/12/22 03:19:17;;;;;;;4.95;3.38;;;8.80;99.90;;;;;;8314717;28;20022;-71
2020/12/22 03:23:19;;;;;;;7.95;5.65;;;8.70;99.90;;;;;;8299045;28;20387;-71
2020/12/22 03:27:19;;;;;;;8.18;5.53;;;8.70;99.90;;;;;;8299028;28;20026;-71
2020/12/22 03:31:20;;;;;;;5.80;4.65;;;8.70;99.90;;;;;;8298426;28;20040;-71
2020/12/22 03:35:20;;;;;;;7.20;5.35;;;8.80;99.90;;;;;;8315251;28;20571;-71
2020/12/22 03:39:21;;;;;;;7.05;5.30;;;8.70;99.90;;;;;;8314733;28;20030;-72
2020/12/22 03:43:21;;;;;;;6.50;4.80;;;8.70;99.90;;;;;;8299747;28;20040;-71
2020/12/22 03:47:22;;;;;;;7.18;5.05;;;8.60;99.90;;;;;;8299620;28;20464;-71
2020/12/22 03:51:23;;;;;;;5.68;4.57;;;8.60;99.90;;;;;;8299390;28;20030;-71
2020/12/22 03:55:23;;;;;;;6.18;4.68;;;8.70;99.90;;;;;;8299442;28;20048;-71
2020/12/22 03:59:25;;;;;;;6.07;4.55;;;8.70;99.90;;;;;;8299053;28;20614;-72
2020/12/22 04:03:25;;;;;;;4.95;3.63;;;8.70;99.90;;;;;;8298790;28;20108;-71
2020/12/22 04:07:26;;;;;;;5.15;4.50;;;8.80;99.90;;;;;;8299079;28;20439;-71
2020/12/22 04:11:27;;;;;;;6.13;4.93;;;8.90;99.90;;;;;;8298724;28;20096;-71
2020/12/22 04:15:27;;;;;;;4.35;3.28;;;8.90;99.90;;;;;;8297441;28;20030;-71
2020/12/22 04:19:28;;;;;;;4.70;3.70;;;9.00;99.90;;;;;;8298252;28;20034;-71
2020/12/22 04:23:29;;;;;;;5.47;3.90;;;9.10;99.90;;;;;;8297440;28;20386;-71
2020/12/22 04:27:29;;;;;;;4.68;3.65;;;9.20;99.90;;;;;;8298329;28;20037;-71
2020/12/22 04:31:30;;;;;;;4.40;3.65;;;9.20;99.90;;;;;;8285125;28;20030;-71
2020/12/22 04:35:31;;;;;;;4.75;3.28;;;9.20;99.90;;;;;;8265890;28;20230;-71
2020/12/22 04:39:31;;;;;;;2.75;2.40;;;9.30;99.90;;;;;;8288341;28;20040;-71
2020/12/22 04:43:32;;;;;;;4.60;3.08;;;9.40;99.90;;;;;;8297648;28;20038;-71
2020/12/22 04:47:37;;;;;;;3.88;2.67;;;9.50;99.90;;;;;;8297889;28;20034;-71
2020/12/22 04:51:38;;;;;;;3.97;2.05;;;9.60;99.90;;;;;;8297614;28;20030;-71
2020/12/22 04:55:39;;;;;;;2.70;2.13;;;9.50;99.90;;;;;;8297165;28;20192;-71
2020/12/22 04:59:43;;;;;;;4.28;3.10;;;9.60;99.90;;;;;;8296150;28;20030;-71
2020/12/22 05:03:44;;;;;;;2.10;1.90;;;9.60;99.90;;;;;;8295259;28;20038;-71
2020/12/22 05:07:44;;;;;;;2.72;1.95;;;9.60;99.90;;;;;;8291688;28;20112;-71
2020/12/22 05:11:45;;;;;;;3.10;1.98;;;9.60;99.90;;;;;;8279741;28;20025;-71
2020/12/22 05:15:54;;;;;;;2.60;2.40;;;9.60;99.90;;;;;;8278385;28;20030;-72
2020/12/22 05:19:56;;;;;;;2.57;2.27;;;9.60;99.90;;;;;;8281177;28;20460;-71
2020/12/22 05:23:57;;;;;;;3.22;2.53;;;9.50;99.90;;;;;;8294841;28;20026;-71
2020/12/22 05:27:59;;;;;;;3.70;2.67;;;9.60;99.90;;;;;;8291612;28;20070;-71
2020/12/22 05:32:00;;;;;;;2.92;1.92;;;9.60;99.90;;;;;;8292740;28;20030;-71
2020/12/22 05:36:02;;;;;;;2.00;1.50;;;9.60;99.90;;;;;;8263654;28;20037;-71
2020/12/22 05:40:08;;;;;;;3.08;2.05;;;9.70;99.90;;;;;;8293707;28;20038;-73
2020/12/22 05:44:09;;;;;;;2.58;1.58;;;9.70;99.90;;;;;;8292223;28;20511;-73
2020/12/22 05:48:14;;;;;;;2.67;2.00;;;9.60;99.90;;;;;;8291024;28;20026;-73
2020/12/22 05:52:15;;;;;;;2.53;2.28;;;9.70;99.90;;;;;;8293962;28;20022;-73
2020/12/22 05:56:21;;;;;;;2.50;1.67;;;9.60;99.90;;;;;;8292769;28;20566;-74
2020/12/22 06:00:22;;;;;;;2.65;2.42;;;9.70;99.90;;;;;;8294329;28;20034;-73
2020/12/22 06:04:23;;;;;;;2.45;1.55;;;9.70;99.90;;;;;;8290893;28;20037;-74
2020/12/22 06:08:25;;;;;;;2.00;1.52;;;9.60;99.90;;;;;;8293252;28;20049;-73
2020/12/22 06:12:25;;;;;;;2.05;1.52;;;9.70;99.90;;;;;;8274301;28;20039;-73
2020/12/22 06:16:26;;;;;;;1.45;1.15;;;9.70;99.90;;;;;;8260562;28;20038;-74
2020/12/22 06:20:28;;;;;;;1.73;1.48;;;9.70;99.90;;;;;;8260361;28;20121;-73
2020/12/22 06:24:30;;;;;;;2.88;2.20;;;9.70;99.90;;;;;;8262289;28;20023;-73
2020/12/22 06:28:31;;;;;;;2.13;1.77;;;9.60;99.90;;;;;;8284045;28;20025;-73
2020/12/22 06:32:32;;;;;;;2.78;2.28;;;9.60;99.90;;;;;;8294083;28;20095;-74
2020/12/22 06:36:55;;;;;;;1.90;1.58;;;9.60;99.90;;;;;;8289112;28;20543;-74
2020/12/22 06:40:57;;;;;;;2.33;1.70;;;9.60;99.90;;;;;;8276279;28;20491;-74
2020/12/22 06:45:22;;;;;;;2.05;1.60;;;9.60;99.90;;;;;;8308192;28;20025;-74
2020/12/22 06:49:51;;;;;;;2.70;1.85;;;9.60;99.90;;;;;;8301779;28;20144;-73
2020/12/22 06:53:52;;;;;;;2.78;1.80;;;9.70;99.90;;;;;;8339922;28;20037;-74
2020/12/22 06:57:52;;;;;;;1.60;1.25;;;9.80;99.90;;;;;;8325211;28;20037;-74
2020/12/22 07:01:53;;;;;;;2.10;1.25;;;9.80;99.90;;;;;;8306237;28;20545;-74
2020/12/22 07:05:54;;;;;;;1.50;1.20;;;9.70;99.90;;;;;;8304716;28;20522;-73
2020/12/22 07:10:06;;;;;;;2.28;1.40;;;9.90;99.90;;;;;;8291093;28;20026;-73
2020/12/22 07:14:07;;;;;;;1.75;1.60;;;9.90;99.90;;;;;;8287941;28;20418;-74
2020/12/22 07:18:13;;;;;;;2.15;1.40;;;10.00;99.90;;;;;;8289194;28;20045;-73
2020/12/22 07:22:17;;;;;;;2.60;1.30;;;10.00;99.90;;;;;;8290377;28;20029;-73
2020/12/22 07:26:19;;;;;;;1.00;0.90;;;10.10;99.90;;;;;;8290386;28;20034;-73
2020/12/22 07:30:20;;;;;;;0.57;0.57;;;10.10;99.90;;;;;;8289443;28;20407;-73
2020/12/22 07:34:21;;;;;;;2.38;1.40;;;10.20;99.90;;;;;;8292848;28;20053;-74
2020/12/22 07:38:22;;;;;;;3.85;1.50;;;10.20;99.90;;;;;;8307404;28;20034;-74
2020/12/22 07:42:23;;;;;;;1.80;0.80;;;10.20;99.90;;;;;;8270831;28;20033;-74
2020/12/22 07:46:24;;;;;;;1.73;1.25;;;10.20;99.90;;;;;;8283020;28;20036;-73
2020/12/22 07:50:25;;;;;;;1.50;1.00;;;10.20;99.90;;;;;;8291461;28;20030;-73
2020/12/22 07:54:26;;;;;;;1.15;0.90;;;10.30;99.90;;;;;;8292062;28;20034;-73
2020/12/22 07:58:31;;;;;;;1.45;1.20;;;10.30;99.90;;;;;;8287477;28;20402;-75
2020/12/22 08:02:32;;;;;;;1.60;1.15;;;10.30;99.90;;;;;;8288165;28;20069;-74
2020/12/22 08:06:33;;;;;;;1.00;0.82;;;10.40;99.90;;;;;;8297724;28;20057;-74
2020/12/22 08:10:35;;;;;;;1.48;0.80;;;10.50;99.90;;;;;;8294428;28;20029;-74
2020/12/22 08:14:39;;;;;;;2.40;1.20;;;10.50;99.90;;;;;;8298576;28;20104;-74
2020/12/22 08:18:41;;;;;;;1.48;1.00;;;10.50;99.90;;;;;;8296808;28;20372;-73
2020/12/22 08:22:42;;;;;;;1.33;0.80;;;10.70;99.90;;;;;;8296586;28;20026;-74
2020/12/22 08:26:45;;;;;;;0.80;0.60;;;10.80;99.90;;;;;;8297813;28;20025;-74
2020/12/22 08:30:45;;;;;;;1.10;0.93;;;10.90;99.90;;;;;;8296025;28;20095;-74
2020/12/22 08:34:46;;;;;;;1.25;0.90;;;10.90;99.90;;;;;;8296166;28;20026;-73
2020/12/22 08:38:47;;;;;;;2.08;0.73;;;10.90;99.90;;;;;;8296718;28;20108;-74
2020/12/22 08:42:48;;;;;;;0.88;0.70;;;10.90;99.90;;;;;;8297314;28;20030;-74
2020/12/22 08:46:49;;;;;;;1.42;0.77;;;10.90;99.90;;;;;;8295564;28;20113;-74
2020/12/22 08:50:52;;;;;;;1.02;0.75;;;11.00;99.90;;;;;;8295631;28;20030;-74
2020/12/22 08:55:00;;;;;;;0.50;0.50;;;11.00;99.90;;;;;;8296808;28;20037;-74
2020/12/22 08:59:03;;;;;;;3.17;0.80;;;10.90;99.90;;;;;;8294634;28;20037;-74
2020/12/22 09:03:03;;;;;;;0.50;0.50;;;10.90;99.90;;;;;;8296050;28;20376;-76
2020/12/22 09:07:11;;;;;;;1.60;0.63;;;11.00;99.90;;;;;;8294209;28;20022;-75
2020/12/22 09:11:19;;;;;;;1.40;0.70;;;11.10;99.90;;;;;;8295018;28;20049;-74
2020/12/22 09:15:20;;;;;;;0.60;0.50;;;11.10;99.90;;;;;;8291191;28;20018;-74
2020/12/22 09:19:29;;;;;;;0.93;0.75;;;11.10;99.90;;;;;;8292632;28;20045;-74
2020/12/22 09:23:29;;;;;;;3.50;0.80;;;11.10;99.90;;;;;;8279336;28;20026;-74
2020/12/22 09:27:31;;;;;;;0.50;0.50;;;11.20;99.90;;;;;;8277042;28;20084;-74
2020/12/22 09:31:31;;;;;;;0.77;0.57;;;11.30;99.90;;;;;;8266145;28;20507;-74
2020/12/22 09:35:32;;;;;;;1.73;0.80;;;11.30;99.90;;;;;;8286351;28;20032;-74
2020/12/22 09:39:37;;;;;;;0.35;0.32;;;11.40;99.90;;;;;;8290344;28;20061;-73
2020/12/22 09:43:37;;;;;;;1.75;0.60;;;11.50;99.90;;;;;;8291354;28;20029;-74
2020/12/22 09:47:38;;;;;;;0.57;0.38;;;11.60;99.90;;;;;;8285144;28;20499;-74
2020/12/22 09:51:39;;;;;;;1.85;0.50;;;11.70;99.90;;;;;;8292047;28;20033;-74
2020/12/22 09:55:39;;;;;;;0.90;0.57;;;11.90;99.90;;;;;;8291028;28;20025;-74
2020/12/22 09:59:40;;;;;;;3.78;0.60;;;12.20;99.90;;;;;;8290844;28;20368;-74
2020/12/22 10:03:42;;;;;;;1.95;0.30;;;12.30;99.90;;;;;;8293124;28;20032;-73
2020/12/22 10:07:42;;;;;;;1.20;0.63;;;12.30;99.90;;;;;;8308992;28;20403;-74
2020/12/22 10:11:44;;;;;;;1.48;0.30;;;12.30;99.90;;;;;;8281286;28;20053;-74
2020/12/22 10:15:45;;;;;;;0.82;0.50;;;12.30;99.90;;;;;;8282178;28;20029;-74
2020/12/22 10:19:47;;;;;;;0.90;0.40;;;12.40;99.90;;;;;;8289656;28;20651;-75
2020/12/22 10:23:49;;;;;;;1.90;0.60;;;12.40;99.90;;;;;;8281335;28;20041;-74
2020/12/22 10:27:50;;;;;;;1.30;0.70;;;12.40;99.90;;;;;;8287616;28;20029;-74
2020/12/22 10:31:50;;;;;;;1.25;0.70;;;12.50;99.90;;;;;;8291842;28;20145;-74
2020/12/22 10:35:52;;;;;;;0.90;0.70;;;12.50;99.90;;;;;;8289450;28;20029;-74
2020/12/22 10:39:52;;;;;;;0.50;0.40;;;12.60;99.90;;;;;;8292110;28;20669;-74
2020/12/22 10:43:53;;;;;;;0.47;0.40;;;12.70;99.90;;;;;;8293371;28;20083;-73
2020/12/22 10:47:55;;;;;;;1.98;0.75;;;12.70;99.90;;;;;;8292338;28;20032;-74
2020/12/22 10:51:55;;;;;;;0.52;0.40;;;12.60;99.90;;;;;;8290475;28;20475;-74
2020/12/22 10:55:58;;;;;;;1.27;0.90;;;12.60;99.90;;;;;;8293665;28;20045;-74
2020/12/22 10:59:58;;;;;;;0.50;0.40;;;12.70;99.90;;;;;;8287418;28;20030;-74
2020/12/22 11:03:59;;;;;;;1.27;1.00;;;12.70;99.90;;;;;;8292678;28;20057;-74
2020/12/22 11:08:02;;;;;;;1.27;0.88;;;12.80;99.90;;;;;;8293178;28;20088;-74
2020/12/22 11:12:03;;;;;;;1.38;0.98;;;12.80;99.90;;;;;;8292093;28;20094;-74
2020/12/22 11:16:07;;;;;;;0.80;0.70;;;12.70;99.90;;;;;;8306111;28;20080;-74
2020/12/22 11:20:07;;;;;;;1.13;0.93;;;12.70;99.90;;;;;;8285593;28;20022;-74
2020/12/22 11:24:08;;;;;;;1.75;1.65;;;12.70;99.90;;;;;;8296930;28;20065;-74
2020/12/22 11:28:08;;;;;;;2.75;1.95;;;12.70;99.90;;;;;;8291585;28;20030;-74
2020/12/22 11:32:10;;;;;;;1.15;0.80;;;12.90;99.90;;;;;;8290722;28;20026;-75
2020/12/22 11:36:15;;;;;;;1.40;0.82;;;12.80;99.90;;;;;;8293077;28;20041;-74
2020/12/22 11:40:16;;;;;;;0.60;0.52;;;12.80;99.90;;;;;;8298422;28;20065;-74
2020/12/22 11:44:17;;;;;;;6.97;4.32;;;12.90;99.90;;;;;;8299277;28;20037;-74
2020/12/22 11:48:17;;;;;;;1.50;1.40;;;12.80;99.90;;;;;;8298483;28;20045;-74
2020/12/22 11:52:20;;;;;;;2.90;2.65;;;13.00;99.90;;;;;;8298681;28;20037;-74
2020/12/22 11:56:20;;;;;;;0.70;0.57;;;13.00;99.90;;;;;;8294872;28;20084;-74
2020/12/22 12:00:21;;;;;;;5.75;1.70;;;13.20;99.90;;;;;;8297746;28;20065;-74
2020/12/22 12:04:22;;;;;;;0.85;0.73;;;13.20;99.90;;;;;;8292965;28;20030;-74
2020/12/22 12:08:23;;;;;;;1.10;0.60;;;13.70;99.90;;;;;;8286059;28;20494;-74
2020/12/22 12:12:23;;;;;;;1.88;0.50;;;14.40;99.90;;;;;;8296541;28;20030;-74
2020/12/22 12:16:24;;;;;;;1.20;0.80;;;14.60;99.90;;;;;;8275218;28;20127;-74
2020/12/22 12:20:25;;;;;;;0.30;0.30;;;14.50;99.90;;;;;;8291316;28;20026;-75
2020/12/22 12:24:26;;;;;;;1.05;0.60;;;14.10;99.90;;;;;;8287191;28;20109;-73
2020/12/22 12:28:26;;;;;;;1.00;0.52;;;13.80;99.90;;;;;;8281362;28;20030;-74
2020/12/22 12:32:28;;;;;;;0.82;0.70;;;13.50;99.90;;;;;;8289973;28;20022;-74
2020/12/22 12:36:29;;;;;;;0.88;0.77;;;13.60;99.90;;;;;;8297287;28;20025;-74
2020/12/22 12:40:30;;;;;;;0.73;0.55;;;13.50;99.90;;;;;;8296289;28;20025;-74
2020/12/22 12:44:30;;;;;;;0.70;0.65;;;14.40;99.90;;;;;;8297529;28;20026;-74
2020/12/22 12:48:34;;;;;;;0.85;0.60;;;14.70;99.90;;;;;;8294426;28;20034;-74
2020/12/22 12:52:34;;;;;;;0.80;0.38;;;14.80;99.90;;;;;;8275102;28;20033;-74
2020/12/22 12:56:36;;;;;;;0.30;0.30;;;14.60;99.90;;;;;;8275271;28;20578;-74
2020/12/22 13:00:36;;;;;;;0.40;0.40;;;14.70;99.90;;;;;;8301114;28;20053;-74
2020/12/22 13:04:37;;;;;;;1.10;0.50;;;14.00;99.90;;;;;;8271858;28;20018;-74
2020/12/22 13:08:41;;;;;;;0.57;0.40;;;13.70;99.90;;;;;;8304923;28;20403;-74
2020/12/22 13:12:42;;;;;;;0.40;0.40;;;13.60;99.90;;;;;;8308842;28;20046;-74
2020/12/22 13:16:42;;;;;;;2.17;1.30;;;13.70;99.90;;;;;;8290359;28;20038;-74
2020/12/22 13:20:43;;;;;;;7.60;3.90;;;13.90;99.90;;;;;;8295928;28;20458;-74
2020/12/22 13:24:43;;;;;;;0.40;0.30;;;13.80;99.90;;;;;;8288838;28;20026;-74
2020/12/22 13:28:44;;;;;;;2.33;1.15;;;13.90;99.90;;;;;;8306894;28;20502;-74
2020/12/22 13:32:47;;;;;;;12.27;6.50;;;14.00;99.90;;;;;;8301295;28;20037;-76
2020/12/22 13:36:51;;;;;;;7.97;5.22;;;14.10;99.90;;;;;;8298760;28;20080;-74
2020/12/22 13:40:53;;;;;;;4.93;2.83;;;14.60;99.90;;;;;;8290165;28;20692;-74
2020/12/22 13:44:54;;;;;;;9.32;5.53;;;14.40;99.90;;;;;;8297925;28;20045;-74
2020/12/22 13:48:54;;;;;;;14.02;6.22;;;14.00;99.90;;;;;;8284527;28;20736;-74
2020/12/22 13:52:55;;;;;;;31.38;13.45;;;13.70;99.90;;;;;;8288834;28;20025;-74
2020/12/22 13:56:56;;;;;;;1.52;0.90;;;13.60;99.90;;;;;;8296396;28;20411;-74
2020/12/22 14:00:56;;;;;;;3.45;1.83;;;13.50;99.90;;;;;;8294451;28;20080;-74
2020/12/22 14:04:57;;;;;;;2.00;1.50;;;13.50;99.90;;;;;;8268435;28;20530;-74
2020/12/22 14:08:57;;;;;;;3.05;1.92;;;13.50;99.90;;;;;;8283304;28;20034;-74
2020/12/22 14:12:58;;;;;;;10.13;5.72;;;13.20;99.90;;;;;;8281425;28;20133;-74
2020/12/22 14:16:59;;;;;;;1.75;1.20;;;13.20;99.90;;;;;;8283733;28;20030;-74
2020/12/22 14:20:59;;;;;;;2.88;1.75;;;13.20;99.90;;;;;;8292207;28;20106;-75
2020/12/22 14:25:00;;;;;;;6.63;3.65;;;13.20;99.90;;;;;;8264546;28;20527;-74
2020/12/22 14:29:01;;;;;;;3.00;1.90;;;13.10;99.90;;;;;;8276547;28;20034;-74
2020/12/22 14:33:01;;;;;;;9.07;5.60;;;13.10;99.90;;;;;;8287191;28;20081;-74
2020/12/22 14:37:02;;;;;;;3.95;0.90;;;13.20;99.90;;;;;;8275485;28;20049;-74
2020/12/22 14:41:08;;;;;;;3.10;1.75;;;13.30;99.90;;;;;;8298709;28;20034;-77
2020/12/22 14:45:09;;;;;;;21.63;10.88;;;13.30;99.90;;;;;;8289456;28;20025;-75
2020/12/22 14:49:13;;;;;;;5.07;1.95;;;13.20;99.90;;;;;;8320964;28;20090;-77
2020/12/22 14:53:13;;;;;;;2.80;1.50;;;13.20;99.90;;;;;;8286315;28;20095;-74
2020/12/22 14:57:14;;;;;;;1.85;1.15;;;13.20;99.90;;;;;;8280186;28;20377;-75
2020/12/22 15:01:15;;;;;;;2.20;1.15;;;13.00;99.90;;;;;;8274282;28;20034;-75
2020/12/22 15:05:17;;;;;;;39.05;17.38;;;13.00;99.90;;;;;;8270942;28;20498;-75
2020/12/22 15:09:18;;;;;;;1.42;0.93;;;12.90;99.90;;;;;;8302816;28;20036;-75
2020/12/22 15:13:18;;;;;;;15.35;8.50;;;12.80;99.90;;;;;;8290724;28;20026;-75
2020/12/22 15:17:19;;;;;;;1.50;1.40;;;12.80;99.90;;;;;;8286000;28;20046;-74
2020/12/22 15:21:19;;;;;;;1.75;1.65;;;12.70;99.90;;;;;;8287413;28;20026;-75
2020/12/22 15:25:20;;;;;;;13.27;4.53;;;12.70;99.90;;;;;;8292352;28;20030;-74
2020/12/22 15:29:20;;;;;;;4.18;2.10;;;12.60;99.90;;;;;;8294437;28;20037;-75
2020/12/22 15:33:21;;;;;;;1.38;1.05;;;12.60;99.90;;;;;;8297267;28;20432;-75
2020/12/22 15:37:22;;;;;;;0.82;0.60;;;12.60;99.90;;;;;;8297913;28;20095;-75
2020/12/22 15:41:22;;;;;;;2.67;0.93;;;12.50;99.90;;;;;;8291797;28;20018;-75
2020/12/22 15:45:23;;;;;;;1.48;0.70;;;12.50;99.90;;;;;;8297101;28;20026;-75
2020/12/22 15:49:24;;;;;;;0.70;0.70;;;12.50;99.90;;;;;;8304246;28;20026;-75
2020/12/22 15:53:24;;;;;;;7.05;2.90;;;12.50;99.90;;;;;;8285335;28;20088;-74
2020/12/22 15:57:25;;;;;;;1.77;0.93;;;12.50;99.90;;;;;;8297170;28;20084;-74
2020/12/22 16:01:26;;;;;;;26.20;18.00;;;12.60;99.90;;;;;;8298668;28;20058;-76
2020/12/22 16:05:27;;;;;;;0.40;0.40;;;12.50;99.90;;;;;;8296576;28;20049;-75
2020/12/22 16:09:28;;;;;;;2.67;1.35;;;12.50;99.90;;;;;;8294090;28;20026;-75
2020/12/22 16:13:29;;;;;;;31.10;12.15;;;12.50;99.90;;;;;;8293768;28;20034;-75
2020/12/22 16:17:33;;;;;;;62.15;28.25;;;12.50;99.90;;;;;;8296149;28;20026;-75
2020/12/22 16:21:37;;;;;;;3.70;2.33;;;12.50;99.90;;;;;;8294285;28;20026;-76
2020/12/22 16:25:39;;;;;;;1.10;0.80;;;12.40;99.90;;;;;;8292385;28;20029;-75
2020/12/22 16:29:40;;;;;;;0.35;0.35;;;12.40;99.90;;;;;;8294168;28;20045;-75
2020/12/22 16:33:42;;;;;;;0.50;0.45;;;12.40;99.90;;;;;;8293849;28;20101;-75
2020/12/22 16:37:43;;;;;;;0.70;0.40;;;12.30;99.90;;;;;;8296897;28;20061;-75
2020/12/22 16:41:48;;;;;;;0.98;0.50;;;12.30;99.90;;;;;;8288135;28;20160;-73
2020/12/22 16:45:49;;;;;;;1.73;0.40;;;12.30;99.90;;;;;;8279990;28;20046;-72
2020/12/22 16:49:49;;;;;;;0.20;0.20;;;12.20;99.90;;;;;;8291974;28;20053;-72
2020/12/22 16:53:50;;;;;;;0.22;0.22;;;12.10;99.90;;;;;;8290458;28;20039;-73
2020/12/22 16:57:51;;;;;;;1.77;0.40;;;12.00;99.90;;;;;;8278660;28;20705;-73
2020/12/22 17:01:52;;;;;;;0.68;0.50;;;12.00;99.90;;;;;;8299253;28;20025;-72
2020/12/22 17:05:52;;;;;;;0.52;0.47;;;12.00;99.90;;;;;;8291878;28;20041;-72
2020/12/22 17:09:53;;;;;;;0.20;0.20;;;11.90;99.90;;;;;;8308145;28;20033;-72
2020/12/22 17:13:53;;;;;;;0.30;0.30;;;11.90;99.90;;;;;;8292949;28;20053;-72
2020/12/22 17:17:54;;;;;;;0.30;0.30;;;11.90;99.90;;;;;;8291005;28;20033;-72
2020/12/22 17:21:56;;;;;;;0.40;0.40;;;11.80;99.90;;;;;;8290732;28;20518;-72
2020/12/22 17:25:56;;;;;;;0.75;0.70;;;11.80;99.90;;;;;;8285532;28;20034;-72
2020/12/22 17:29:57;;;;;;;0.50;0.40;;;11.80;99.90;;;;;;8292082;28;20589;-72
2020/12/22 17:33:57;;;;;;;1.42;0.98;;;11.90;99.90;;;;;;8285089;28;20117;-74
2020/12/22 17:38:01;;;;;;;1.50;0.80;;;11.90;99.90;;;;;;8280410;28;20022;-69
2020/12/22 17:42:02;;;;;;;0.80;0.52;;;11.90;99.90;;;;;;8285447;28;20037;-70
2020/12/22 17:46:03;;;;;;;1.35;0.70;;;11.90;99.90;;;;;;8268531;28;20034;-69
2020/12/22 17:50:04;;;;;;;0.65;0.52;;;11.90;99.90;;;;;;8282761;28;20092;-69
2020/12/22 17:54:04;;;;;;;1.05;0.45;;;11.90;99.90;;;;;;8258272;28;20030;-70
2020/12/22 17:58:05;;;;;;;1.17;0.55;;;11.90;99.90;;;;;;8280848;28;20104;-69
2020/12/22 18:02:06;;;;;;;0.50;0.50;;;12.00;99.90;;;;;;8257693;28;20030;-70
2020/12/22 18:06:07;;;;;;;2.42;0.88;;;11.90;99.90;;;;;;8270099;28;20395;-70
2020/12/22 18:10:08;;;;;;;0.88;0.80;;;11.90;99.90;;;;;;8271279;28;20033;-70
2020/12/22 18:14:08;;;;;;;0.90;0.85;;;11.80;99.90;;;;;;8278470;28;20538;-69
2020/12/22 18:18:11;;;;;;;1.27;1.00;;;11.80;99.90;;;;;;8277345;28;20191;-70
2020/12/22 18:22:11;;;;;;;1.67;1.23;;;11.80;99.90;;;;;;8262882;28;20026;-69
2020/12/22 18:26:12;;;;;;;2.50;1.77;;;11.80;99.90;;;;;;8271131;28;20041;-69
2020/12/22 18:30:13;;;;;;;1.08;0.95;;;11.60;99.90;;;;;;8272305;28;20085;-70
2020/12/22 18:34:13;;;;;;;2.08;1.20;;;11.70;99.90;;;;;;8273785;28;20029;-70
2020/12/22 18:38:14;;;;;;;2.33;1.70;;;11.60;99.90;;;;;;8276534;28;20026;-69
2020/12/22 18:42:14;;;;;;;1.13;0.85;;;11.70;99.90;;;;;;8289726;28;20022;-70
2020/12/22 18:46:16;;;;;;;1.83;1.63;;;11.70;99.90;;;;;;8289701;28;20101;-70
2020/12/22 18:50:17;;;;;;;2.17;1.88;;;11.70;99.90;;;;;;8276792;28;20041;-70
2020/12/22 18:54:18;;;;;;;4.15;2.25;;;11.70;99.90;;;;;;8270389;28;20495;-69
2020/12/22 18:58:19;;;;;;;12.18;6.93;;;11.70;99.90;;;;;;8273976;28;20030;-70
2020/12/22 19:02:20;;;;;;;1.90;1.80;;;11.70;99.90;;;;;;8290648;28;20080;-72
2020/12/22 19:06:21;;;;;;;0.95;0.88;;;11.70;99.90;;;;;;8270262;28;20033;-72
2020/12/22 19:10:22;;;;;;;1.95;1.50;;;11.70;99.90;;;;;;8280853;28;20033;-72
2020/12/22 19:14:22;;;;;;;2.10;1.92;;;11.60;99.90;;;;;;8287734;28;20364;-70
2020/12/22 19:18:23;;;;;;;2.05;1.83;;;11.60;99.90;;;;;;8284428;28;20480;-73
2020/12/22 19:22:24;;;;;;;2.55;2.10;;;11.70;99.90;;;;;;8279338;28;20030;-70
2020/12/22 19:26:25;;;;;;;4.22;2.83;;;11.70;99.90;;;;;;8280828;28;20035;-70
2020/12/22 19:30:25;;;;;;;3.10;2.33;;;11.60;99.90;;;;;;8280723;28;20034;-70
2020/12/22 19:34:26;;;;;;;4.38;2.05;;;11.70;99.90;;;;;;8272103;28;20491;-70
2020/12/22 19:38:26;;;;;;;11.48;7.60;;;11.70;99.90;;;;;;8277233;28;20092;-70
2020/12/22 19:42:27;;;;;;;1.92;1.73;;;11.70;99.90;;;;;;8286359;28;20022;-70
2020/12/22 19:46:27;;;;;;;7.07;5.70;;;11.70;99.90;;;;;;8288003;28;20030;-69
2020/12/22 19:50:28;;;;;;;1.83;1.70;;;11.70;99.90;;;;;;8268924;28;20057;-69
2020/12/22 19:54:29;;;;;;;4.28;2.60;;;11.70;99.90;;;;;;8272452;28;20041;-70
2020/12/22 19:58:29;;;;;;;2.20;2.00;;;11.80;99.90;;;;;;8274855;28;20038;-70
2020/12/22 20:02:30;;;;;;;1.00;0.73;;;11.80;99.90;;;;;;8293381;28;20026;-69
2020/12/22 20:06:31;;;;;;;1.73;1.63;;;11.80;99.90;;;;;;8292188;28;20045;-70
2020/12/22 20:10:35;;;;;;;4.45;1.90;;;11.80;99.90;;;;;;8274593;28;20407;-70
2020/12/22 20:14:35;;;;;;;1.67;1.27;;;11.70;99.90;;;;;;8276912;28;20128;-70
2020/12/22 20:18:36;;;;;;;1.65;1.40;;;11.70;99.90;;;;;;8289016;28;20041;-70
2020/12/22 20:22:37;;;;;;;1.60;1.45;;;11.70;99.90;;;;;;8292233;28;20466;-70
2020/12/22 20:26:38;;;;;;;1.55;1.15;;;11.70;99.90;;;;;;8288911;28;20132;-70
2020/12/22 20:30:42;;;;;;;1.45;1.35;;;11.70;99.90;;;;;;8279563;28;20072;-70
2020/12/22 20:34:43;;;;;;;2.28;1.45;;;11.70;99.90;;;;;;8279763;28;20034;-69
2020/12/22 20:38:46;;;;;;;1.58;1.30;;;11.70;99.90;;;;;;8285530;28;20121;-70
2020/12/22 20:42:46;;;;;;;1.23;1.13;;;11.80;99.90;;;;;;8293247;28;20499;-70
2020/12/22 20:46:47;;;;;;;1.40;1.10;;;11.80;99.90;;;;;;8293140;28;20029;-70
2020/12/22 20:50:48;;;;;;;1.95;1.20;;;11.90;99.90;;;;;;8292486;28;20036;-70
2020/12/22 20:54:48;;;;;;;1.35;1.00;;;11.90;99.90;;;;;;8291358;28;20514;-70
2020/12/22 20:58:49;;;;;;;25.40;14.20;;;12.00;99.90;;;;;;8292567;28;20117;-70
2020/12/22 21:02:49;;;;;;;51.50;22.10;;;11.90;99.90;;;;;;8290163;28;20030;-70